createdAt,value
2019-01-21T00:01:53.331Z,14.80
2019-01-21T00:03:58.305Z,14.70
2019-01-21T00:06:03.188Z,14.77
2019-01-21T00:08:08.329Z,15.10
2019-01-21T00:10:13.329Z,14.50
2019-01-21T00:12:18.722Z,14.00
2019-01-21T00:14:23.637Z,14.20
2019-01-21T00:16:28.925Z,14.80
2019-01-21T00:18:34.235Z,15.17
2019-01-21T00:20:39.537Z,16.07
2019-01-21T00:22:44.349Z,13.93
2019-01-21T00:24:49.211Z,14.70
2019-01-21T00:26:54.095Z,13.23
2019-01-21T00:28:58.930Z,13.10
2019-01-21T00:31:03.824Z,14.33
2019-01-21T00:33:09.166Z,13.03
2019-01-21T00:35:14.054Z,13.90
2019-01-21T00:37:18.943Z,13.27
2019-01-21T00:39:27.992Z,13.90
2019-01-21T00:41:33.254Z,14.50
2019-01-21T00:43:38.109Z,13.20
2019-01-21T00:45:43.120Z,13.20
2019-01-21T00:47:48.373Z,14.10
2019-01-21T00:49:53.233Z,14.90
2019-01-21T00:51:58.005Z,13.63
2019-01-21T00:54:02.877Z,14.47
2019-01-21T00:56:07.795Z,15.80
2019-01-21T00:58:13.229Z,15.73
2019-01-21T01:00:21.538Z,14.07
2019-01-21T01:02:26.740Z,13.63
2019-01-21T01:04:31.982Z,15.80
2019-01-21T01:06:36.898Z,15.57
2019-01-21T01:08:41.734Z,15.20
2019-01-21T01:10:47.096Z,17.30
2019-01-21T01:12:52.316Z,16.37
2019-01-21T01:14:57.173Z,16.23
2019-01-21T01:17:02.510Z,15.07
2019-01-21T01:19:07.352Z,13.70
2019-01-21T01:21:12.175Z,14.30
2019-01-21T01:23:17.366Z,15.10
2019-01-21T01:25:22.226Z,15.37
2019-01-21T01:27:27.079Z,13.87
2019-01-21T01:29:32.888Z,14.80
2019-01-21T01:31:37.806Z,13.67
2019-01-21T01:33:45.847Z,13.80
2019-01-21T01:35:50.837Z,13.77
2019-01-21T01:37:56.386Z,12.83
2019-01-21T01:40:01.699Z,13.63
2019-01-21T01:42:07.030Z,13.17
2019-01-21T01:44:13.012Z,13.17
2019-01-21T01:46:18.745Z,13.30
2019-01-21T01:48:24.261Z,13.73
2019-01-21T01:50:29.643Z,13.33
2019-01-21T01:52:34.988Z,13.93
2019-01-21T01:54:40.390Z,12.00
2019-01-21T01:56:46.031Z,12.90
2019-01-21T01:58:51.310Z,13.40
2019-01-21T02:00:57.719Z,12.43
2019-01-21T02:03:03.069Z,13.23
2019-01-21T02:05:11.116Z,12.57
2019-01-21T02:07:16.606Z,12.90
2019-01-21T02:09:22.229Z,13.20
2019-01-21T02:11:28.721Z,12.07
2019-01-21T02:13:34.725Z,12.03
2019-01-21T02:15:40.134Z,12.90
2019-01-21T02:17:51.834Z,12.60
2019-01-21T02:19:55.589Z,12.70
2019-01-21T02:22:01.432Z,13.03
2019-01-21T02:24:09.021Z,12.57
2019-01-21T02:26:22.337Z,13.40
2019-01-21T02:29:09.885Z,12.13
2019-01-21T02:31:50.503Z,13.03
2019-01-21T02:34:54.774Z,12.10
2019-01-21T02:37:52.616Z,12.00
2019-01-21T02:40:10.185Z,12.60
2019-01-21T02:42:34.547Z,12.60
2019-01-21T02:45:10.315Z,11.97
2019-01-21T02:47:45.592Z,12.27
2019-01-21T02:50:53.567Z,12.37
2019-01-21T02:53:27.051Z,11.53
2019-01-21T02:56:02.865Z,10.90
2019-01-21T02:58:30.769Z,12.43
2019-01-21T03:00:54.567Z,11.93
2019-01-21T03:03:59.449Z,12.23
2019-01-21T03:06:20.104Z,11.77
2019-01-21T03:08:58.230Z,12.00
2019-01-21T03:11:29.958Z,12.40
2019-01-21T03:13:47.492Z,12.00
2019-01-21T03:16:31.168Z,13.03
2019-01-21T03:19:16.947Z,13.17
2019-01-21T03:22:16.872Z,12.83
2019-01-21T03:25:07.276Z,11.93
2019-01-21T03:27:47.651Z,12.13
2019-01-21T03:30:39.002Z,13.13
2019-01-21T03:33:40.269Z,12.80
2019-01-21T03:36:14.759Z,12.70
2019-01-21T03:38:52.378Z,11.53
2019-01-21T03:41:09.953Z,12.60
2019-01-21T03:43:45.081Z,12.20
2019-01-21T03:46:55.126Z,12.30
2019-01-21T03:49:32.494Z,11.10
2019-01-21T03:52:39.630Z,11.07
2019-01-21T03:54:54.430Z,11.77
2019-01-21T03:57:21.108Z,12.60
2019-01-21T04:00:08.296Z,11.73
2019-01-21T04:02:44.305Z,11.60
2019-01-21T04:07:41.600Z,12.20
2019-01-21T04:10:27.397Z,11.83
2019-01-21T04:13:25.445Z,12.07
2019-01-21T04:22:13.451Z,11.63
2019-01-21T04:24:54.353Z,12.73
2019-01-21T04:27:45.671Z,12.80
2019-01-21T04:30:40.385Z,12.20
2019-01-21T04:33:19.468Z,12.30
2019-01-21T04:41:45.431Z,12.07
2019-01-21T04:44:47.794Z,12.33
2019-01-21T04:50:53.003Z,12.50
2019-01-21T04:53:29.050Z,11.90
2019-01-21T04:55:51.910Z,12.37
2019-01-21T04:58:50.643Z,11.40
2019-01-21T05:01:35.493Z,12.53
2019-01-21T05:04:25.479Z,11.83
2019-01-21T05:07:23.769Z,11.57
2019-01-21T05:10:14.151Z,12.50
2019-01-21T05:13:08.899Z,10.83
2019-01-21T05:15:55.399Z,12.17
2019-01-21T05:18:31.621Z,11.53
2019-01-21T05:21:30.695Z,13.10
2019-01-21T05:24:12.073Z,11.60
2019-01-21T05:26:31.689Z,13.30
2019-01-21T05:29:16.076Z,12.33
2019-01-21T05:31:45.061Z,12.60
2019-01-21T05:34:32.458Z,13.07
2019-01-21T05:36:59.635Z,13.80
2019-01-21T05:40:03.722Z,13.10
2019-01-21T05:42:42.714Z,13.43
2019-01-21T05:45:35.143Z,13.27
2019-01-21T05:48:16.838Z,11.77
2019-01-21T05:50:57.610Z,14.10
2019-01-21T05:53:46.323Z,12.97
2019-01-21T05:56:24.219Z,13.00
2019-01-21T05:59:23.845Z,12.37
2019-01-21T06:02:18.295Z,12.63
2019-01-21T06:05:04.906Z,13.00
2019-01-21T06:07:36.794Z,12.50
2019-01-21T06:10:12.285Z,13.60
2019-01-21T06:13:01.012Z,13.43
2019-01-21T06:15:39.055Z,12.93
2019-01-21T06:18:29.503Z,14.17
2019-01-21T06:21:17.167Z,13.90
2019-01-21T06:24:08.666Z,13.33
2019-01-21T06:27:00.358Z,14.10
2019-01-21T06:29:16.837Z,14.23
2019-01-21T06:31:51.157Z,13.60
2019-01-21T06:34:32.396Z,13.33
2019-01-21T06:37:04.343Z,14.30
2019-01-21T06:40:14.773Z,14.13
2019-01-21T06:42:53.683Z,14.50
2019-01-21T06:45:33.789Z,14.00
2019-01-21T06:48:22.117Z,14.43
2019-01-21T06:51:08.676Z,15.27
2019-01-21T06:54:03.448Z,14.13
2019-01-21T06:56:47.589Z,13.30
2019-01-21T06:59:51.601Z,14.37
2019-01-21T07:02:37.553Z,12.83
2019-01-21T07:05:29.071Z,13.60
2019-01-21T07:08:17.459Z,14.13
2019-01-21T07:10:47.588Z,12.20
2019-01-21T07:13:27.298Z,14.40
2019-01-21T07:16:12.011Z,13.50
2019-01-21T07:19:20.562Z,15.33
2019-01-21T07:21:57.780Z,16.03
2019-01-21T07:24:27.625Z,15.60
2019-01-21T07:27:04.541Z,14.40
2019-01-21T07:29:51.879Z,16.03
2019-01-21T07:32:08.901Z,14.57
2019-01-21T07:34:51.803Z,14.70
2019-01-21T07:37:40.425Z,16.63
2019-01-21T07:40:26.295Z,14.27
2019-01-21T07:43:26.953Z,15.63
2019-01-21T07:46:05.731Z,15.40
2019-01-21T07:48:54.180Z,15.60
2019-01-21T07:51:25.855Z,15.70
2019-01-21T07:54:13.892Z,14.90
2019-01-21T07:56:58.068Z,14.97
2019-01-21T07:59:45.875Z,15.43
2019-01-21T08:02:38.127Z,24.40
2019-01-21T08:05:25.593Z,28.00
2019-01-21T08:07:59.517Z,20.73
2019-01-21T08:10:53.217Z,21.67
2019-01-21T08:13:31.528Z,20.80
2019-01-21T08:16:06.889Z,23.20
2019-01-21T08:18:46.949Z,23.00
2019-01-21T08:21:18.147Z,22.63
2019-01-21T08:24:12.780Z,22.10
2019-01-21T08:26:57.490Z,18.87
2019-01-21T08:29:30.537Z,19.40
2019-01-21T08:31:54.403Z,19.30
2019-01-21T08:34:30.402Z,18.40
2019-01-21T08:37:22.340Z,18.33
2019-01-21T08:40:25.816Z,18.90
2019-01-21T08:43:27.789Z,16.17
2019-01-21T08:46:16.745Z,18.00
2019-01-21T08:49:01.288Z,17.90
2019-01-21T08:51:31.712Z,17.53
2019-01-21T08:54:20.280Z,17.30
2019-01-21T08:57:08.783Z,16.47
2019-01-21T08:59:54.293Z,16.47
2019-01-21T09:02:21.271Z,15.87
2019-01-21T09:05:05.339Z,16.53
2019-01-21T09:07:41.774Z,18.50
2019-01-21T09:10:03.627Z,17.60
2019-01-21T09:12:49.902Z,18.60
2019-01-21T09:15:16.226Z,19.73
2019-01-21T09:18:07.955Z,21.33
2019-01-21T09:20:42.120Z,20.40
2019-01-21T09:23:15.008Z,20.50
2019-01-21T09:26:07.393Z,20.23
2019-01-21T09:28:51.749Z,20.07
2019-01-21T09:31:29.155Z,21.40
2019-01-21T09:34:04.350Z,20.47
2019-01-21T09:36:25.774Z,20.80
2019-01-21T09:42:20.530Z,21.20
2019-01-21T09:44:37.463Z,19.87
2019-01-21T09:46:49.727Z,21.33
2019-01-21T09:49:21.164Z,21.73
2019-01-21T09:51:38.631Z,30.43
2019-01-21T09:53:52.909Z,24.73
2019-01-21T10:38:26.955Z,22.60
2019-01-21T10:40:44.214Z,21.83
2019-01-21T10:43:16.398Z,24.43
2019-01-21T10:45:51.792Z,25.50
2019-01-21T10:48:27.711Z,24.47
2019-01-21T10:51:03.784Z,23.77
2019-01-21T10:53:57.917Z,25.07
2019-01-21T10:56:31.011Z,25.60
2019-01-21T11:01:59.147Z,25.90
2019-01-21T11:04:29.377Z,24.87
2019-01-21T11:07:02.796Z,24.47
2019-01-21T11:09:38.539Z,23.07
2019-01-21T11:12:20.267Z,23.00
2019-01-21T11:14:49.841Z,24.00
2019-01-21T11:17:40.129Z,23.20
2019-01-21T11:20:25.927Z,23.20
2019-01-21T11:22:56.240Z,22.30
2019-01-21T11:26:01.274Z,23.60
2019-01-21T11:28:18.155Z,50.77
2019-01-21T11:31:15.297Z,27.00
2019-01-21T11:34:04.188Z,28.07
2019-01-21T11:37:07.797Z,21.63
2019-01-21T11:39:42.357Z,22.40
2019-01-21T11:42:17.858Z,22.27
2019-01-21T11:45:00.702Z,21.73
2019-01-21T11:47:53.954Z,27.57
2019-01-21T11:50:53.857Z,22.63
2019-01-21T11:53:14.612Z,20.90
2019-01-21T11:55:53.268Z,21.63
2019-01-21T11:58:33.262Z,21.00
2019-01-21T12:00:52.584Z,21.47
2019-01-21T12:03:38.216Z,20.80
2019-01-21T12:06:12.945Z,20.87
2019-01-21T12:08:41.872Z,20.97
2019-01-21T12:11:20.191Z,21.07
2019-01-21T12:14:17.651Z,21.73
2019-01-21T12:17:11.084Z,21.20
2019-01-21T12:19:41.978Z,23.47
2019-01-21T12:22:33.856Z,23.23
2019-01-21T12:24:46.971Z,28.33
2019-01-21T12:27:38.645Z,23.07
2019-01-21T12:30:03.089Z,21.53
2019-01-21T12:32:41.088Z,24.43
2019-01-21T12:35:14.697Z,24.23
2019-01-21T12:37:50.144Z,26.23
2019-01-21T12:40:43.917Z,24.80
2019-01-21T12:43:38.622Z,24.90
2019-01-21T12:46:27.266Z,24.03
2019-01-21T12:48:51.687Z,24.20
2019-01-21T12:51:36.116Z,24.70
2019-01-21T12:54:06.934Z,21.67
2019-01-21T12:57:01.869Z,23.20
2019-01-21T12:59:33.307Z,21.87
2019-01-21T13:01:50.919Z,24.23
2019-01-21T13:04:23.657Z,27.60
2019-01-21T13:07:12.364Z,22.87
2019-01-21T13:09:29.829Z,22.23
2019-01-21T13:11:58.428Z,23.97
2019-01-21T13:14:43.901Z,22.37
2019-01-21T13:17:06.277Z,21.40
2019-01-21T13:19:47.389Z,23.50
2019-01-21T13:22:23.531Z,22.37
2019-01-21T13:24:45.057Z,22.60
2019-01-21T13:27:14.927Z,24.20
2019-01-21T13:29:47.321Z,24.30
2019-01-21T13:32:18.737Z,23.90
2019-01-21T13:34:58.036Z,22.67
2019-01-21T13:37:38.352Z,23.70
2019-01-21T13:40:05.241Z,22.87
2019-01-21T13:42:52.097Z,22.60
2019-01-21T13:45:35.321Z,22.00
2019-01-21T13:48:43.935Z,20.70
2019-01-21T13:51:30.342Z,21.37
2019-01-21T13:54:14.794Z,19.47
2019-01-21T13:56:41.690Z,26.87
2019-01-21T13:59:22.651Z,19.90
2019-01-21T14:01:55.893Z,18.80
2019-01-21T14:04:27.900Z,19.20
2019-01-21T14:07:22.557Z,19.50
2019-01-21T14:10:12.841Z,18.20
2019-01-21T14:12:26.398Z,17.83
2019-01-21T14:15:21.258Z,18.10
2019-01-21T14:18:33.662Z,18.57
2019-01-21T14:21:17.156Z,16.60
2019-01-21T14:23:45.287Z,16.43
2019-01-21T14:26:26.750Z,18.23
2019-01-21T14:29:14.701Z,19.80
2019-01-21T14:32:06.752Z,19.33
2019-01-21T14:34:28.776Z,18.37
2019-01-21T14:37:06.771Z,20.20
2019-01-21T14:39:50.926Z,20.63
2019-01-21T14:42:32.205Z,19.07
2019-01-21T14:45:14.379Z,18.73
2019-01-21T14:47:58.963Z,19.23
2019-01-21T14:50:32.792Z,19.60
2019-01-21T14:53:26.751Z,20.30
2019-01-21T14:56:20.084Z,20.30
2019-01-21T14:58:55.339Z,20.43
2019-01-21T15:01:40.931Z,19.43
2019-01-21T15:04:34.930Z,19.93
2019-01-21T15:07:17.986Z,18.43
2019-01-21T15:10:07.548Z,20.60
2019-01-21T15:12:54.582Z,19.63
2019-01-21T15:15:38.704Z,20.00
2019-01-21T15:18:07.618Z,21.00
2019-01-21T15:20:22.478Z,20.50
2019-01-21T15:23:09.230Z,20.53
2019-01-21T15:25:42.038Z,21.60
2019-01-21T15:28:13.283Z,20.90
2019-01-21T15:31:05.083Z,20.40
2019-01-21T15:33:31.966Z,21.73
2019-01-21T15:36:17.010Z,21.33
2019-01-21T15:38:50.521Z,21.90
2019-01-21T15:41:23.819Z,23.20
2019-01-21T15:43:47.329Z,23.40
2019-01-21T15:46:15.369Z,21.83
2019-01-21T15:48:44.061Z,21.53
2019-01-21T15:51:42.663Z,21.33
2019-01-21T15:54:21.129Z,22.30
2019-01-21T15:57:22.131Z,20.93
2019-01-21T16:00:12.845Z,21.67
2019-01-21T16:02:58.161Z,21.60
2019-01-21T16:05:14.977Z,22.30
2019-01-21T16:07:47.445Z,23.37
2019-01-21T16:10:54.020Z,22.53
2019-01-21T16:13:40.620Z,22.70
2019-01-21T16:16:12.333Z,22.93
2019-01-21T16:18:26.493Z,23.00
2019-01-21T16:20:58.717Z,24.27
2019-01-21T16:24:08.321Z,23.60
2019-01-21T16:26:45.195Z,23.60
2019-01-21T16:29:13.316Z,23.97
2019-01-21T16:32:00.724Z,23.13
2019-01-21T16:34:49.129Z,24.60
2019-01-21T16:37:23.049Z,24.90
2019-01-21T16:40:35.038Z,26.70
2019-01-21T16:42:40.029Z,28.50
2019-01-21T16:44:46.615Z,27.10
2019-01-21T16:46:51.475Z,26.43
2019-01-21T16:48:56.387Z,26.10
2019-01-21T16:51:01.248Z,25.63
2019-01-21T16:53:06.122Z,24.83
2019-01-21T16:55:11.144Z,24.80
2019-01-21T16:57:16.112Z,24.57
2019-01-21T16:59:20.911Z,22.33
2019-01-21T17:01:26.739Z,23.93
2019-01-21T17:03:31.957Z,22.87
2019-01-21T17:05:38.275Z,22.90
2019-01-21T17:07:43.122Z,22.97
2019-01-21T17:09:48.186Z,23.13
2019-01-21T17:12:25.831Z,22.87
2019-01-21T17:14:41.636Z,22.60
2019-01-21T17:28:59.197Z,27.80
2019-01-21T17:34:49.330Z,27.67
2019-01-21T17:36:54.100Z,27.80
2019-01-21T17:38:59.757Z,28.17
2019-01-21T17:41:04.799Z,27.63
2019-01-21T17:43:09.807Z,28.37
2019-01-21T17:45:17.253Z,26.43
2019-01-21T17:47:22.346Z,26.57
2019-01-21T17:49:27.229Z,26.17
2019-01-21T17:51:34.339Z,27.17
2019-01-21T17:53:38.888Z,25.00
2019-01-21T17:55:44.720Z,25.97
2019-01-21T17:57:49.687Z,25.60
2019-01-21T17:59:55.886Z,26.47
2019-01-21T18:02:00.861Z,25.80
2019-01-21T18:04:05.920Z,27.70
2019-01-21T18:06:33.857Z,27.53
2019-01-21T18:08:38.633Z,26.30
2019-01-21T18:10:43.485Z,25.73
2019-01-21T18:12:48.513Z,26.07
2019-01-21T18:14:53.437Z,24.50
2019-01-21T18:16:58.251Z,25.07
2019-01-21T18:19:04.512Z,24.23
2019-01-21T18:21:09.854Z,24.40
2019-01-21T18:23:25.466Z,23.20
2019-01-21T18:25:56.234Z,22.63
2019-01-21T18:28:01.461Z,23.87
2019-01-21T18:30:09.155Z,23.27
2019-01-21T18:32:15.491Z,24.97
2019-01-21T18:34:20.500Z,23.53
2019-01-21T18:36:25.824Z,23.80
2019-01-21T18:38:31.007Z,23.37
2019-01-21T18:40:36.018Z,23.57
2019-01-21T18:42:41.162Z,23.60
2019-01-21T18:44:47.975Z,23.00
2019-01-21T18:46:53.728Z,24.13
2019-01-21T18:48:59.845Z,24.70
2019-01-21T18:51:05.931Z,23.40
2019-01-21T18:53:13.394Z,22.80
2019-01-21T18:55:19.801Z,24.57
2019-01-21T18:57:25.521Z,26.33
2019-01-21T18:59:34.316Z,24.80
2019-01-21T19:02:34.050Z,26.43
2019-01-21T19:05:46.735Z,25.37
2019-01-21T19:07:53.767Z,25.97
2019-01-21T19:40:11.098Z,26.23
2019-01-21T19:42:16.318Z,26.40
2019-01-21T19:44:23.023Z,26.27
2019-01-21T19:46:44.063Z,27.67
2019-01-21T19:48:48.615Z,25.50
2019-01-21T19:51:01.151Z,27.20
2019-01-21T19:53:08.094Z,27.07
2019-01-21T20:10:21.351Z,28.47
2019-01-21T20:13:14.289Z,27.27
2019-01-21T20:26:45.212Z,28.57
2019-01-21T20:28:53.475Z,27.40
2019-01-21T20:30:59.393Z,26.97
2019-01-21T20:35:48.583Z,29.00
2019-01-21T20:37:58.350Z,27.40
2019-01-21T20:40:11.014Z,29.43
2019-01-21T20:42:35.484Z,30.80
2019-01-21T20:44:57.040Z,31.30
2019-01-21T20:47:05.839Z,30.17
2019-01-21T20:49:15.600Z,29.20
2019-01-21T20:51:34.397Z,30.00
2019-01-21T20:53:41.206Z,29.23
2019-01-21T20:55:49.885Z,30.00
2019-01-21T20:57:59.731Z,27.77
2019-01-21T21:00:31.585Z,29.70
2019-01-21T21:02:38.209Z,29.23
2019-01-21T21:04:47.048Z,29.20
2019-01-21T21:06:54.053Z,27.80
2019-01-21T21:09:09.438Z,29.53
2019-01-21T21:23:26.922Z,28.30
2019-01-21T21:25:50.940Z,28.20
2019-01-21T21:27:58.454Z,28.87
2019-01-21T21:30:03.692Z,29.30
2019-01-21T21:32:08.801Z,28.43
2019-01-21T21:34:14.509Z,27.87
2019-01-21T21:36:20.081Z,31.50
2019-01-21T21:38:25.700Z,30.93
2019-01-21T21:40:31.260Z,30.13
2019-01-21T21:42:36.653Z,32.17
2019-01-21T21:44:41.866Z,32.20
2019-01-21T21:46:47.535Z,33.10
2019-01-21T21:48:52.837Z,31.40
2019-01-21T21:50:58.070Z,32.13
2019-01-21T21:53:03.936Z,31.00
2019-01-21T21:55:10.173Z,32.20
2019-01-21T21:57:15.705Z,32.23
2019-01-21T22:49:53.998Z,28.63
2019-01-21T22:52:01.676Z,28.87
2019-01-21T22:54:07.748Z,29.27
2019-01-21T22:56:13.598Z,29.07
2019-01-21T22:58:20.535Z,28.20
2019-01-21T23:39:10.453Z,27.97
2019-01-21T23:48:42.641Z,27.97
2019-01-21T23:54:13.296Z,26.40
